SPJC Airport Information

Runway Information
Airport Frequencies
Airport Navaids
Airport Weather Information & NOTAM

Deprecated: The each() function is deprecated. This message will be suppressed on further calls in /home/aerocargo/public_html/lib/functions.php on line 165
ADDS - METARS form results

(0903 UTC 17 October 2021)
Data provider http://aviationweather.gov/metar/data/
 
METAR text: SPJC 170900Z 17007KT 8000 BKN007 15/13 Q1015 NOSIG RMK PP000
Conditions at: SPJC (LIMA/JORGE CHAVE, PE) observed 0900 UTC 17 October 2021
Temperature: 15.0°C (59°F)
Dewpoint: 13.0°C (55°F) [RH = 88%]
Pressure (altimeter): 29.97 inches Hg (1015.0 mb)
Winds: from the S (170 degrees) at 8 MPH (7 knots; 3.6 m/s)
Visibility: 5 miles ( 8 km)
Ceiling: 700 feet AGL
Clouds: broken clouds at 700 feet AGL
Weather: no significant weather observed at this time